createdAt,value
2022-08-07T00:02:37.059Z,52.00
2022-08-07T00:07:09.519Z,51.60
2022-08-07T00:12:03.277Z,51.90
2022-08-07T00:16:58.270Z,52.10
2022-08-07T00:21:57.102Z,52.20
2022-08-07T00:27:06.035Z,52.30
2022-08-07T00:32:01.266Z,52.60
2022-08-07T00:36:56.264Z,52.60
2022-08-07T00:41:50.250Z,52.90
2022-08-07T00:46:40.553Z,53.10
2022-08-07T00:51:58.749Z,53.60
2022-08-07T00:56:51.250Z,54.00
2022-08-07T01:01:46.277Z,54.00
2022-08-07T01:06:40.245Z,54.60
2022-08-07T01:12:10.024Z,54.50
2022-08-07T01:16:49.221Z,54.60
2022-08-07T01:21:45.252Z,54.70
2022-08-07T01:26:34.828Z,54.70
2022-08-07T01:31:41.726Z,54.80
2022-08-07T01:36:44.432Z,54.80
2022-08-07T01:42:01.434Z,55.00
2022-08-07T01:47:14.232Z,55.10
2022-08-07T01:52:11.209Z,55.70
2022-08-07T01:57:20.380Z,56.10
2022-08-07T02:02:32.709Z,56.10
2022-08-07T02:07:50.471Z,55.90
2022-08-07T02:13:01.229Z,56.10
2022-08-07T02:18:19.199Z,56.50
2022-08-07T02:23:23.812Z,57.00
2022-08-07T02:28:25.365Z,57.30
2022-08-07T02:33:32.811Z,57.80
2022-08-07T02:38:50.845Z,58.50
2022-08-07T02:43:53.180Z,59.70
2022-08-07T02:48:55.019Z,60.30
2022-08-07T02:54:00.166Z,60.60
2022-08-07T02:58:55.456Z,60.60
2022-08-07T03:03:52.150Z,60.60
2022-08-07T03:08:59.160Z,60.70
2022-08-07T03:13:57.357Z,60.80
2022-08-07T03:18:52.156Z,61.00
2022-08-07T03:24:20.858Z,61.10
2022-08-07T03:29:05.167Z,61.50
2022-08-07T03:34:08.141Z,61.40
2022-08-07T03:39:05.512Z,61.30
2022-08-07T03:44:02.457Z,61.40
2022-08-07T03:49:02.462Z,61.70
2022-08-07T03:54:33.926Z,62.00
2022-08-07T03:59:18.515Z,62.30
2022-08-07T04:04:17.294Z,62.50
2022-08-07T04:09:20.119Z,62.00
2022-08-07T04:14:39.043Z,60.80
2022-08-07T04:19:51.054Z,59.30
2022-08-07T04:24:51.098Z,57.80
2022-08-07T04:29:58.613Z,55.70
2022-08-07T04:35:26.090Z,53.80
2022-08-07T04:40:21.121Z,51.50
2022-08-07T04:45:44.416Z,49.60
2022-08-07T04:50:52.889Z,47.70
2022-08-07T04:58:16.755Z,45.60
2022-08-07T05:01:20.155Z,43.70
2022-08-07T05:06:20.031Z,42.10
2022-08-07T05:11:24.368Z,40.80
2022-08-07T05:16:25.061Z,40.30
2022-08-07T05:22:00.595Z,39.30
2022-08-07T05:26:42.066Z,37.70
2022-08-07T05:31:51.077Z,36.70
2022-08-07T05:36:54.051Z,35.10
2022-08-07T05:42:01.176Z,34.90
2022-08-07T05:46:55.065Z,35.20
2022-08-07T05:51:50.056Z,33.80
2022-08-07T05:56:48.034Z,33.00
2022-08-07T06:01:48.147Z,32.00
2022-08-07T06:06:47.637Z,31.20
2022-08-07T06:11:52.046Z,31.20
2022-08-07T06:16:50.292Z,31.20
2022-08-07T06:22:16.022Z,31.70
2022-08-07T06:27:11.029Z,31.70
2022-08-07T06:32:17.035Z,31.10
2022-08-07T06:37:17.006Z,30.00
2022-08-07T06:42:16.003Z,28.80
2022-08-07T06:47:27.334Z,28.30
2022-08-07T06:52:31.792Z,28.70
2022-08-07T06:57:43.737Z,28.50
2022-08-07T07:02:53.408Z,28.40
2022-08-07T07:07:59.287Z,28.20
2022-08-07T07:13:04.019Z,27.80
2022-08-07T07:18:05.626Z,28.20
2022-08-07T07:24:05.180Z,27.60
2022-08-07T07:28:42.825Z,26.80
2022-08-07T07:33:37.979Z,27.00
2022-08-07T07:38:36.070Z,26.80
2022-08-07T07:44:14.274Z,26.50
2022-08-07T07:48:46.089Z,26.50
2022-08-07T07:53:51.549Z,26.60
2022-08-07T07:58:48.981Z,26.70
2022-08-07T08:04:06.564Z,26.70
2022-08-07T08:09:09.719Z,26.10
2022-08-07T08:14:05.963Z,25.40
2022-08-07T08:19:17.990Z,25.00
2022-08-07T08:24:44.831Z,24.80
2022-08-07T08:29:54.230Z,24.10
2022-08-07T08:34:52.962Z,24.60
2022-08-07T08:39:54.834Z,24.90
2022-08-07T08:44:58.969Z,23.70
2022-08-07T08:50:04.998Z,23.80
2022-08-07T08:55:07.747Z,23.40
2022-08-07T09:00:15.973Z,22.50
2022-08-07T09:05:37.017Z,22.60
2022-08-07T09:10:44.267Z,23.00
2022-08-07T09:16:20.100Z,23.50
2022-08-07T09:21:13.624Z,23.50
2022-08-07T09:26:34.939Z,23.80
2022-08-07T09:31:39.927Z,23.20
2022-08-07T09:36:49.564Z,22.30
2022-08-07T09:41:58.999Z,22.40
2022-08-07T09:47:50.936Z,22.20
2022-08-07T09:52:37.920Z,22.50
2022-08-07T09:58:03.931Z,22.70
2022-08-07T10:04:04.911Z,22.40
2022-08-07T10:09:01.903Z,22.20
2022-08-07T10:14:04.921Z,22.00
2022-08-07T10:19:13.902Z,21.50
2022-08-07T10:24:21.882Z,21.70
2022-08-07T10:29:45.782Z,21.80
2022-08-07T10:34:51.905Z,21.60
2022-08-07T10:40:05.709Z,21.50
2022-08-07T10:45:10.883Z,21.60
2022-08-07T10:50:15.172Z,21.80
2022-08-07T10:55:21.160Z,21.60
2022-08-07T11:00:36.803Z,21.30
2022-08-07T11:05:51.379Z,21.30
2022-08-07T11:11:00.025Z,21.20
2022-08-07T11:15:57.862Z,21.00
2022-08-07T11:21:05.850Z,20.20
2022-08-07T11:26:05.976Z,19.60
2022-08-07T11:31:17.864Z,20.00
2022-08-07T11:36:30.635Z,20.70
2022-08-07T11:42:02.361Z,21.30
2022-08-07T11:47:05.844Z,21.20
2022-08-07T11:52:11.845Z,21.60
2022-08-07T11:58:00.273Z,21.30
2022-08-07T12:03:01.891Z,21.60
2022-08-07T12:08:03.674Z,22.30
2022-08-07T12:13:11.656Z,23.10
2022-08-07T12:18:29.661Z,23.90
2022-08-07T12:24:06.652Z,24.90
2022-08-07T12:29:04.834Z,25.60
2022-08-07T12:33:56.562Z,26.40
2022-08-07T12:38:43.026Z,26.90
2022-08-07T12:44:02.451Z,27.00
2022-08-07T12:48:51.934Z,27.20
2022-08-07T12:54:02.685Z,27.10
2022-08-07T12:58:35.446Z,27.50
2022-08-07T13:03:53.492Z,27.60
2022-08-07T13:08:38.592Z,27.70
2022-08-07T13:13:47.540Z,27.90
2022-08-07T13:18:34.062Z,27.70
2022-08-07T13:24:01.363Z,27.80
2022-08-07T13:28:18.266Z,28.10
2022-08-07T13:33:00.892Z,27.80
2022-08-07T13:37:42.973Z,27.80
2022-08-07T13:42:34.126Z,27.80
2022-08-07T13:47:15.998Z,28.40
2022-08-07T13:52:22.334Z,28.00
2022-08-07T13:56:59.644Z,27.80
2022-08-07T14:01:51.373Z,27.70
2022-08-07T14:06:37.160Z,27.50
2022-08-07T14:11:17.648Z,27.60
2022-08-07T14:15:57.027Z,27.60
2022-08-07T14:20:40.244Z,27.40
2022-08-07T14:25:25.326Z,27.60
2022-08-07T14:30:11.303Z,27.60
2022-08-07T14:34:48.904Z,27.60
2022-08-07T14:40:16.128Z,27.70
2022-08-07T14:44:24.361Z,27.60
2022-08-07T14:49:00.164Z,27.60
2022-08-07T14:54:09.667Z,27.40
2022-08-07T14:58:55.107Z,27.30
2022-08-07T15:03:52.960Z,27.30
2022-08-07T15:08:32.257Z,27.50
2022-08-07T15:13:13.821Z,27.20
2022-08-07T15:17:56.930Z,27.40
2022-08-07T15:22:42.696Z,27.40
2022-08-07T15:27:29.056Z,27.40
2022-08-07T15:32:04.834Z,27.50
2022-08-07T15:37:03.732Z,27.60
2022-08-07T15:42:43.525Z,27.30
2022-08-07T15:56:33.509Z,27.50
2022-08-07T16:01:20.533Z,27.30
2022-08-07T16:05:55.798Z,27.40
2022-08-07T16:10:31.397Z,28.00
2022-08-07T16:15:55.613Z,27.50
2022-08-07T16:20:55.282Z,27.60
2022-08-07T16:25:56.079Z,27.70
2022-08-07T16:30:35.594Z,27.70
2022-08-07T16:35:56.552Z,27.70
2022-08-07T16:40:57.081Z,27.60
2022-08-07T16:46:47.404Z,27.80
2022-08-07T16:51:21.665Z,27.80
2022-08-07T16:56:01.100Z,27.80
2022-08-07T17:00:42.560Z,28.30
2022-08-07T17:06:26.679Z,28.50
2022-08-07T17:10:54.900Z,28.60
2022-08-07T17:15:44.121Z,28.80
2022-08-07T17:20:32.727Z,29.00
2022-08-07T17:25:17.167Z,28.80
2022-08-07T17:30:14.354Z,28.70
2022-08-07T17:35:33.012Z,28.60
2022-08-07T17:40:08.084Z,28.90
2022-08-07T17:44:50.589Z,29.30
2022-08-07T17:49:44.487Z,29.50
2022-08-07T17:54:29.621Z,29.90
2022-08-07T17:59:25.065Z,30.00
2022-08-07T18:04:16.464Z,30.20
2022-08-07T18:09:05.466Z,30.50
2022-08-07T18:13:46.221Z,30.70
2022-08-07T18:18:46.071Z,30.90
2022-08-07T18:23:43.589Z,31.10
2022-08-07T18:28:34.324Z,31.30
2022-08-07T18:33:54.754Z,31.50
2022-08-07T18:38:57.070Z,31.70
2022-08-07T18:43:49.521Z,32.10
2022-08-07T18:50:05.597Z,32.40
2022-08-07T18:53:36.612Z,32.80
2022-08-07T18:58:51.774Z,33.20
2022-08-07T19:03:37.546Z,33.40
2022-08-07T19:08:18.394Z,33.60
2022-08-07T19:13:10.191Z,34.00
2022-08-07T19:18:02.559Z,34.30
2022-08-07T19:22:50.935Z,34.80
2022-08-07T19:28:58.224Z,35.00
2022-08-07T19:32:31.684Z,36.00
2022-08-07T19:37:17.349Z,35.60
2022-08-07T19:42:08.200Z,35.70
2022-08-07T19:46:55.653Z,35.90
2022-08-07T19:51:52.761Z,36.30
2022-08-07T19:58:03.350Z,36.50
2022-08-07T20:01:53.053Z,36.60
2022-08-07T20:06:30.648Z,37.00
2022-08-07T20:11:10.855Z,37.10
2022-08-07T20:15:48.875Z,37.30
2022-08-07T20:20:26.411Z,37.50
2022-08-07T20:25:12.464Z,37.80
2022-08-07T20:29:59.257Z,38.00
2022-08-07T20:34:50.360Z,38.30
2022-08-07T20:40:01.324Z,38.40
2022-08-07T20:44:29.949Z,38.70
2022-08-07T20:49:59.396Z,38.80
2022-08-07T20:54:07.147Z,39.00
2022-08-07T20:58:48.024Z,39.30
2022-08-07T21:03:26.323Z,39.40
2022-08-07T21:08:06.422Z,39.50
2022-08-07T21:12:42.860Z,39.80
2022-08-07T21:18:03.031Z,39.90
2022-08-07T21:22:21.316Z,40.20
2022-08-07T21:27:19.525Z,40.40
2022-08-07T21:32:47.114Z,40.70
2022-08-07T21:37:03.679Z,40.90
2022-08-07T21:42:01.247Z,41.30
2022-08-07T21:46:46.153Z,41.40
2022-08-07T21:51:32.641Z,41.60
2022-08-07T21:56:35.901Z,41.70
2022-08-07T22:01:17.007Z,42.00
2022-08-07T22:05:56.845Z,42.40
2022-08-07T22:10:35.560Z,42.60
2022-08-07T22:16:41.561Z,42.80
2022-08-07T22:20:23.679Z,42.90
2022-08-07T22:25:10.855Z,43.30
2022-08-07T22:29:50.245Z,43.60
2022-08-07T22:34:31.727Z,43.70
2022-08-07T22:39:18.518Z,44.00
2022-08-07T22:44:05.848Z,44.10
2022-08-07T22:49:11.152Z,44.40
2022-08-07T22:54:06.977Z,44.60
2022-08-07T22:59:18.038Z,44.80
2022-08-07T23:04:08.824Z,45.20
2022-08-07T23:10:05.945Z,45.40
2022-08-07T23:14:22.709Z,45.60
2022-08-07T23:19:16.567Z,46.10
2022-08-07T23:24:23.853Z,46.30
2022-08-07T23:29:43.355Z,46.50
2022-08-07T23:34:50.943Z,46.70
2022-08-07T23:39:41.369Z,47.00
2022-08-07T23:44:41.573Z,47.20
2022-08-07T23:49:52.810Z,47.10
2022-08-07T23:54:46.573Z,47.50
